Time;durP1;ratioP1;P1;durP2;ratioP2;P2;SDS_P1;SDS_P2;PMS_P1;PMS_P2;Temp;Humidity;BMP_temperature;BMP_pressure;BME280_temperature;BME280_humidity;BME280_pressure;Samples;Min_cycle;Max_cycle;Signal;HPM_P1;HPM_P2
2022/11/28 00:01:30;;;;;;;12.20;7.57;;;;;;;1.95;75.46;95385.94;5058485;28;20030;-69
2022/11/28 00:03:56;;;;;;;10.93;7.75;;;;;;;1.98;76.03;95383.28;5062855;28;20101;-69
2022/11/28 00:06:21;;;;;;;11.82;8.73;;;;;;;1.88;76.04;95379.41;5092281;28;20490;-69
2022/11/28 00:08:47;;;;;;;13.63;9.70;;;;;;;1.87;76.04;95388.00;5092114;28;20064;-69
2022/11/28 00:11:14;;;;;;;12.57;8.50;;;;;;;1.86;76.10;95384.56;5093438;28;20028;-69
2022/11/28 00:13:40;;;;;;;11.60;7.68;;;;;;;1.77;76.75;95369.56;5092063;28;20032;-69
2022/11/28 00:16:06;;;;;;;12.65;8.13;;;;;;;1.77;76.59;95378.09;5084826;28;20047;-69
2022/11/28 00:18:32;;;;;;;12.63;8.30;;;;;;;1.81;76.80;95370.28;5091853;28;20035;-69
2022/11/28 00:21:09;;;;;;;13.75;9.02;;;;;;;1.73;76.80;95374.00;5092067;28;20032;-69
2022/11/28 00:23:34;;;;;;;12.95;8.05;;;;;;;1.67;76.65;95381.91;5108599;28;20040;-70
2022/11/28 00:26:04;;;;;;;13.18;7.45;;;;;;;1.65;77.23;95376.00;5093256;28;20043;-69
2022/11/28 00:28:29;;;;;;;13.48;8.27;;;;;;;1.72;77.11;95374.03;5108237;28;20036;-69
2022/11/28 00:30:55;;;;;;;12.32;7.75;;;;;;;1.61;77.10;95374.44;5093259;28;20119;-69
2022/11/28 00:33:20;;;;;;;11.02;7.65;;;;;;;1.63;76.84;95380.34;5091601;28;20031;-68
2022/11/28 00:35:46;;;;;;;11.93;7.22;;;;;;;1.64;77.20;95376.06;5108788;28;20036;-69
2022/11/28 00:38:11;;;;;;;10.65;7.18;;;;;;;1.68;76.95;95378.44;5092779;28;20028;-69
2022/11/28 00:40:37;;;;;;;13.40;7.78;;;;;;;1.65;77.06;95372.63;5092948;28;20028;-69
2022/11/28 00:43:02;;;;;;;9.93;6.97;;;;;;;1.71;76.87;95372.38;5091505;28;20085;-69
2022/11/28 00:45:27;;;;;;;12.35;7.55;;;;;;;1.75;77.04;95372.19;5091402;28;20039;-69
2022/11/28 00:47:53;;;;;;;11.35;7.35;;;;;;;1.81;76.97;95375.41;5092598;28;20472;-69
2022/11/28 00:50:18;;;;;;;12.35;7.85;;;;;;;1.88;76.65;95379.41;5092798;28;20413;-69
2022/11/28 00:52:44;;;;;;;11.40;7.05;;;;;;;1.87;76.99;95373.44;5092526;28;20444;-69
2022/11/28 00:55:09;;;;;;;13.60;8.30;;;;;;;1.98;76.45;95376.41;5092482;28;20488;-69
2022/11/28 00:57:35;;;;;;;14.70;10.32;;;;;;;1.97;76.48;95379.84;5091214;28;20036;-69
2022/11/28 01:00:00;;;;;;;16.08;10.57;;;;;;;1.98;76.75;95381.53;5092368;28;20028;-69
2022/11/28 01:02:25;;;;;;;18.80;11.10;;;;;;;1.99;75.94;95372.94;5092318;28;20486;-69
2022/11/28 01:04:51;;;;;;;19.58;12.00;;;;;;;1.85;76.22;95346.22;5091008;28;20032;-69
2022/11/28 01:07:16;;;;;;;16.10;10.40;;;;;;;2.01;75.77;95370.31;5107960;28;20085;-69
2022/11/28 01:09:42;;;;;;;17.67;10.25;;;;;;;2.07;76.02;95372.63;5092130;28;20081;-69
2022/11/28 01:12:08;;;;;;;17.13;10.05;;;;;;;2.19;75.04;95364.44;5090801;28;20052;-69
2022/11/28 01:14:33;;;;;;;16.25;10.15;;;;;;;2.20;75.06;95366.13;5090978;28;20129;-69
2022/11/28 01:16:58;;;;;;;15.68;10.38;;;;;;;2.18;75.19;95359.38;5112442;28;20039;-69
2022/11/28 01:19:24;;;;;;;16.35;10.90;;;;;;;2.16;74.82;95369.69;5094016;28;20576;-69
2022/11/28 01:21:49;;;;;;;15.65;10.85;;;;;;;2.13;74.82;95364.69;5112295;28;20035;-69
2022/11/28 01:24:15;;;;;;;14.68;10.20;;;;;;;2.06;75.26;95349.63;5107434;27;20046;-69
2022/11/28 01:26:41;;;;;;;16.60;11.70;;;;;;;2.11;74.68;95350.25;5090770;28;20122;-69
2022/11/28 01:29:06;;;;;;;15.40;10.68;;;;;;;2.09;75.39;95346.94;5073711;28;20402;-69
2022/11/28 01:31:32;;;;;;;16.60;10.57;;;;;;;2.27;74.18;95361.56;5096225;28;20035;-69
2022/11/28 01:33:57;;;;;;;15.10;9.82;;;;;;;2.18;74.54;95352.53;5111968;28;20043;-69
2022/11/28 01:36:23;;;;;;;16.98;10.32;;;;;;;2.25;74.63;95355.66;5111006;28;20024;-69
2022/11/28 01:38:49;;;;;;;17.25;11.48;;;;;;;2.20;74.74;95349.88;5093834;28;20117;-69
2022/11/28 01:41:15;;;;;;;19.40;12.23;;;;;;;2.13;74.95;95344.19;5112336;28;20062;-69
2022/11/28 01:44:26;;;;;;;17.15;10.98;;;;;;;2.19;74.65;95353.34;5110711;28;20429;-69
2022/11/28 01:46:51;;;;;;;14.38;9.52;;;;;;;2.17;74.68;95348.31;5075068;28;20052;-69
2022/11/28 01:49:18;;;;;;;13.05;8.98;;;;;;;2.19;74.27;95345.66;5091346;28;20027;-70
2022/11/28 01:51:47;;;;;;;13.05;8.32;;;;;;;2.20;74.36;95350.75;5090276;28;20483;-69
2022/11/28 01:54:13;;;;;;;15.98;10.43;;;;;;;2.15;74.45;95349.25;5090047;28;20464;-69
2022/11/28 01:56:50;;;;;;;14.75;9.43;;;;;;;2.18;74.52;95338.88;5090052;28;20095;-69
2022/11/28 01:59:15;;;;;;;16.38;9.80;;;;;;;2.20;74.61;95340.47;5057460;28;20032;-69
2022/11/28 02:01:42;;;;;;;14.13;9.55;;;;;;;2.24;74.53;95336.88;5073261;28;20032;-69
2022/11/28 02:04:07;;;;;;;15.30;9.63;;;;;;;2.17;74.27;95345.75;5091096;28;20032;-69
2022/11/28 02:06:33;;;;;;;17.85;12.57;;;;;;;2.07;74.91;95333.38;5101433;28;20486;-69
2022/11/28 02:08:58;;;;;;;18.02;12.43;;;;;;;2.06;75.18;95335.06;5089818;28;20441;-69
2022/11/28 02:11:36;;;;;;;18.52;13.43;;;;;;;2.05;75.11;95335.16;5091294;28;20468;-69
2022/11/28 02:14:26;;;;;;;16.63;12.55;;;;;;;2.09;74.98;95337.53;5089694;28;20468;-69
2022/11/28 02:17:10;;;;;;;18.80;14.07;;;;;;;2.03;75.34;95332.63;5110715;28;20036;-69
2022/11/28 02:19:57;;;;;;;19.20;13.93;;;;;;;1.97;75.05;95317.50;5111345;28;20036;-69
2022/11/28 02:22:36;;;;;;;13.93;9.68;;;;;;;2.05;75.23;95332.59;5109832;28;20493;-69
2022/11/28 02:25:40;;;;;;;9.43;7.07;;;;;;;1.97;75.61;95326.03;5110099;28;20028;-69
2022/11/28 02:28:31;;;;;;;7.15;5.28;;;;;;;1.87;75.70;95326.50;5068419;28;20047;-69
2022/11/28 02:31:32;;;;;;;4.30;3.05;;;;;;;1.70;76.46;95330.56;5108096;28;20039;-69
2022/11/28 02:34:00;;;;;;;4.22;2.85;;;;;;;1.63;76.99;95328.31;5111378;28;20111;-69
2022/11/28 02:36:31;;;;;;;4.07;2.38;;;;;;;1.56;76.80;95332.81;5076461;28;20112;-69
2022/11/28 02:39:14;;;;;;;4.22;2.80;;;;;;;1.58;77.03;95328.47;5076579;28;20020;-69
2022/11/28 02:41:39;;;;;;;3.33;2.22;;;;;;;1.63;76.78;95325.75;5111496;28;20493;-69
2022/11/28 02:44:16;;;;;;;3.88;2.50;;;;;;;1.68;76.52;95316.16;5109793;28;20024;-69
2022/11/28 02:47:02;;;;;;;2.63;1.80;;;;;;;1.61;76.70;95305.28;5093116;28;20046;-69
2022/11/28 02:49:47;;;;;;;3.28;2.30;;;;;;;1.71;76.77;95321.97;5073091;28;20048;-69
2022/11/28 02:52:19;;;;;;;2.80;2.10;;;;;;;1.67;76.71;95312.75;5089504;28;20498;-69
2022/11/28 02:54:44;;;;;;;3.20;2.13;;;;;;;1.74;76.52;95313.34;5089263;28;20413;-69
2022/11/28 02:57:10;;;;;;;2.65;1.98;;;;;;;1.79;76.42;95330.19;5089463;28;20032;-69
2022/11/28 02:59:35;;;;;;;2.85;1.98;;;;;;;1.81;76.62;95326.72;5089326;28;20509;-69
2022/11/28 03:02:00;;;;;;;3.08;2.00;;;;;;;1.87;76.63;95329.88;5090600;28;20031;-69
2022/11/28 03:04:30;;;;;;;3.80;2.50;;;;;;;1.89;76.47;95327.25;5106250;28;20091;-69
2022/11/28 03:07:13;;;;;;;4.53;3.13;;;;;;;1.91;76.03;95330.59;5089238;28;20067;-69
2022/11/28 03:09:56;;;;;;;5.30;2.90;;;;;;;1.93;76.00;95333.94;5089314;28;20081;-69
2022/11/28 03:12:31;;;;;;;4.47;2.97;;;;;;;1.95;76.07;95329.53;5089238;28;20513;-69
2022/11/28 03:15:00;;;;;;;4.50;2.92;;;;;;;1.89;76.24;95319.56;5093999;28;20031;-69
2022/11/28 03:17:30;;;;;;;4.13;2.90;;;;;;;1.91;75.76;95326.28;5105941;28;20036;-69
2022/11/28 03:19:55;;;;;;;5.32;3.20;;;;;;;1.95;76.08;95330.41;5096818;28;20036;-69
2022/11/28 03:22:23;;;;;;;6.90;4.20;;;;;;;1.96;75.81;95332.06;5097483;28;20505;-68
2022/11/28 03:24:59;;;;;;;7.40;4.82;;;;;;;1.94;75.93;95322.78;5097788;28;20028;-68
2022/11/28 03:27:31;;;;;;;4.22;3.25;;;;;;;1.95;76.20;95324.44;5087688;28;20085;-68
2022/11/28 03:29:58;;;;;;;;;;;;;;;1.96;75.87;95332.06;5082712;28;20466;-68
2022/11/28 03:32:26;;;;;;;5.38;3.70;;;;;;;1.74;75.96;95301.34;5098250;28;19915;-68
2022/11/28 03:34:54;;;;;;;18.60;7.85;;;;;;;1.91;76.08;95317.78;5088490;28;20035;-68
2022/11/28 03:37:25;;;;;;;19.52;7.38;;;;;;;2.02;76.00;95330.97;5092693;28;20024;-68
2022/11/28 03:39:56;;;;;;;15.32;7.88;;;;;;;1.96;75.54;95319.25;5087185;28;20032;-68
2022/11/28 03:42:23;;;;;;;16.48;7.97;;;;;;;1.99;75.96;95328.53;5083899;28;20038;-68
2022/11/28 03:45:05;;;;;;;13.85;7.60;;;;;;;2.04;75.79;95334.31;5086679;28;20111;-68
2022/11/28 03:47:34;;;;;;;9.45;6.47;;;;;;;2.01;75.60;95335.28;5105966;27;20114;-68
2022/11/28 03:50:02;;;;;;;8.75;5.85;;;;;;;2.00;75.86;95333.59;5089722;28;20032;-68
2022/11/28 03:52:29;;;;;;;8.63;5.93;;;;;;;2.00;75.76;95337.88;5087242;28;20085;-69
2022/11/28 03:54:54;;;;;;;9.05;6.65;;;;;;;1.97;76.04;95332.88;5089257;28;20024;-69
2022/11/28 03:57:31;;;;;;;8.13;6.25;;;;;;;2.06;75.08;95335.06;5114386;27;20027;-70
2022/11/28 03:59:57;;;;;;;8.48;5.90;;;;;;;2.07;75.04;95328.25;5107929;28;20181;-68
2022/11/28 04:02:36;;;;;;;10.15;6.43;;;;;;;2.07;75.16;95329.06;5075368;28;20065;-68
2022/11/28 04:05:13;;;;;;;10.35;6.82;;;;;;;2.11;75.29;95328.03;5106877;28;20039;-68
2022/11/28 04:07:43;;;;;;;11.07;7.28;;;;;;;2.07;75.46;95334.19;5106141;27;20059;-68
2022/11/28 04:10:35;;;;;;;10.18;7.18;;;;;;;2.01;75.71;95331.88;5087305;28;20040;-68
2022/11/28 04:13:06;;;;;;;9.80;6.18;;;;;;;1.95;75.90;95327.00;5102825;28;20051;-68
2022/11/28 04:15:44;;;;;;;9.02;6.20;;;;;;;1.97;75.75;95325.19;5086480;28;20028;-68
2022/11/28 04:18:20;;;;;;;9.70;6.15;;;;;;;1.99;75.52;95325.97;5104647;28;20058;-68
2022/11/28 04:20:51;;;;;;;10.75;6.28;;;;;;;2.00;75.79;95327.63;5108397;28;20565;-68
2022/11/28 04:23:17;;;;;;;9.77;6.60;;;;;;;1.97;75.83;95330.34;5093781;28;20560;-68
2022/11/28 04:25:45;;;;;;;11.63;7.55;;;;;;;1.96;75.88;95332.06;5090803;28;20158;-68
2022/11/28 04:28:13;;;;;;;9.75;6.55;;;;;;;1.90;75.87;95327.19;5091075;28;20040;-68
2022/11/28 04:30:40;;;;;;;12.32;7.20;;;;;;;2.02;75.60;95325.84;5092171;28;20091;-68
2022/11/28 04:33:08;;;;;;;10.57;7.00;;;;;;;2.01;76.10;95335.28;5094157;28;20617;-68
2022/11/28 04:35:39;;;;;;;8.35;5.85;;;;;;;2.00;76.01;95336.16;5089770;28;20019;-68
2022/11/28 04:38:05;;;;;;;9.77;6.35;;;;;;;2.09;75.20;95337.53;5090756;28;20036;-68
2022/11/28 04:40:31;;;;;;;9.02;6.40;;;;;;;2.09;75.85;95342.66;5088435;28;20039;-68
2022/11/28 04:42:59;;;;;;;10.43;8.60;;;;;;;2.13;75.31;95333.94;5073130;28;20103;-68
2022/11/28 04:45:45;;;;;;;9.63;7.60;;;;;;;1.99;75.15;95303.75;5073654;28;20032;-68
2022/11/28 04:48:10;;;;;;;11.25;8.02;;;;;;;2.17;75.33;95345.75;5075490;28;20111;-68
2022/11/28 04:50:42;;;;;;;21.58;12.63;;;;;;;2.23;75.00;95340.34;5093013;28;20031;-68
2022/11/28 04:53:11;;;;;;;25.90;12.93;;;;;;;2.20;75.40;95343.03;5093965;28;20490;-68
2022/11/28 04:55:47;;;;;;;30.40;15.00;;;;;;;2.12;75.67;95347.66;5093317;28;20398;-68
2022/11/28 04:58:35;;;;;;;9.05;5.70;;;;;;;2.01;75.75;95344.69;5097119;28;20028;-68
2022/11/28 05:01:00;;;;;;;8.43;5.60;;;;;;;1.99;75.70;95351.59;5092666;28;20061;-68
2022/11/28 05:03:28;;;;;;;6.45;5.00;;;;;;;1.99;75.99;95347.31;5094427;28;20039;-68
2022/11/28 05:05:53;;;;;;;7.85;4.70;;;;;;;1.92;75.76;95345.91;5086550;28;20036;-68
2022/11/28 05:08:19;;;;;;;7.57;4.22;;;;;;;1.94;75.55;95350.97;5073209;28;20049;-68
2022/11/28 05:10:44;;;;;;;5.88;4.18;;;;;;;1.98;75.81;95355.09;5092472;28;20020;-68
2022/11/28 05:13:10;;;;;;;6.63;4.55;;;;;;;2.00;75.52;95355.81;5090658;28;20062;-68
2022/11/28 05:15:35;;;;;;;6.07;4.25;;;;;;;1.97;75.88;95355.97;5110306;28;20039;-69
2022/11/28 05:18:01;;;;;;;5.72;4.00;;;;;;;1.92;76.24;95345.91;5112334;28;20031;-68
2022/11/28 05:20:26;;;;;;;6.70;4.28;;;;;;;1.92;75.65;95353.59;5107881;28;20023;-68
2022/11/28 05:22:54;;;;;;;5.68;4.22;;;;;;;1.89;76.35;95347.75;5073847;28;20032;-69
2022/11/28 05:25:20;;;;;;;5.53;4.05;;;;;;;1.91;75.86;95354.47;5109706;28;20433;-68
2022/11/28 05:27:45;;;;;;;5.05;3.75;;;;;;;1.88;76.07;95336.66;5112187;28;20027;-68
2022/11/28 05:30:11;;;;;;;6.30;4.40;;;;;;;1.89;76.26;95346.00;5108921;28;20080;-68
2022/11/28 05:32:37;;;;;;;6.07;4.07;;;;;;;1.75;76.51;95317.56;5093736;28;20032;-68
2022/11/28 05:35:03;;;;;;;4.70;3.33;;;;;;;1.91;75.94;95345.97;5093376;28;20031;-68
2022/11/28 05:37:28;;;;;;;4.65;3.50;;;;;;;1.91;76.41;95343.41;5093897;28;20031;-69
2022/11/28 05:39:53;;;;;;;6.20;3.65;;;;;;;1.92;76.20;95339.94;5110188;28;20032;-68
2022/11/28 05:42:19;;;;;;;4.95;3.00;;;;;;;1.96;75.61;95350.00;5110643;28;20080;-68
2022/11/28 05:44:44;;;;;;;4.35;2.88;;;;;;;1.93;76.14;95345.00;5094331;28;20028;-68
2022/11/28 05:47:10;;;;;;;4.30;3.00;;;;;;;1.91;76.23;95338.28;5091720;28;20035;-68
2022/11/28 05:49:36;;;;;;;4.47;2.83;;;;;;;1.98;76.72;95344.81;5090463;28;20073;-68
2022/11/28 05:52:01;;;;;;;4.13;2.63;;;;;;;1.90;76.36;95328.94;5106267;28;20467;-69
2022/11/28 05:54:27;;;;;;;4.38;2.45;;;;;;;2.00;76.22;95341.28;5110332;28;20305;-68
2022/11/28 05:56:52;;;;;;;4.05;2.97;;;;;;;2.00;76.16;95338.72;5090443;28;20383;-68
2022/11/28 05:59:18;;;;;;;3.75;2.53;;;;;;;1.99;76.31;95336.22;5108190;28;20031;-68
2022/11/28 06:01:43;;;;;;;3.25;2.20;;;;;;;1.98;76.10;95332.00;5097253;28;20035;-68
2022/11/28 06:04:09;;;;;;;3.80;2.45;;;;;;;1.95;76.39;95334.69;5092132;28;20028;-68
2022/11/28 06:06:34;;;;;;;4.55;2.50;;;;;;;2.01;76.50;95337.00;5090147;28;20424;-68
2022/11/28 06:09:00;;;;;;;3.80;2.38;;;;;;;2.10;76.08;95339.19;5090463;28;20040;-68
2022/11/28 06:11:27;;;;;;;3.88;2.53;;;;;;;2.04;76.45;95336.88;5092074;28;20052;-68
2022/11/28 06:13:52;;;;;;;3.88;2.78;;;;;;;1.96;76.69;95323.56;5081788;28;20020;-68
2022/11/28 06:16:20;;;;;;;5.18;3.42;;;;;;;2.03;76.28;95331.81;5085156;28;20377;-68
2022/11/28 06:18:46;;;;;;;4.38;3.35;;;;;;;2.00;76.59;95323.34;5106161;28;20185;-68
2022/11/28 06:21:12;;;;;;;5.13;3.65;;;;;;;2.09;76.04;95332.41;5109104;28;20456;-68
2022/11/28 06:23:37;;;;;;;5.13;3.60;;;;;;;2.08;76.63;95340.97;5109568;28;20061;-69
2022/11/28 06:26:09;;;;;;;5.75;4.07;;;;;;;2.00;76.64;95333.59;5110573;28;20478;-68
2022/11/28 06:28:35;;;;;;;5.70;4.07;;;;;;;1.73;76.67;95292.00;5089495;28;20036;-69
2022/11/28 06:31:00;;;;;;;6.82;4.82;;;;;;;2.01;76.64;95335.28;5090657;28;20042;-68
2022/11/28 06:33:26;;;;;;;8.70;6.30;;;;;;;2.03;76.81;95326.69;5096073;28;20040;-68
2022/11/28 06:35:51;;;;;;;8.48;5.53;;;;;;;2.09;76.94;95337.53;5108173;28;20119;-68
2022/11/28 06:38:17;;;;;;;7.57;4.85;;;;;;;2.10;77.03;95344.31;5099723;28;20497;-69
2022/11/28 06:40:42;;;;;;;7.03;4.80;;;;;;;2.13;76.99;95333.94;5101033;28;20089;-69
2022/11/28 06:43:07;;;;;;;7.43;5.20;;;;;;;2.17;76.97;95332.91;5101550;28;20028;-70
2022/11/28 06:45:33;;;;;;;8.27;5.90;;;;;;;2.19;76.83;95333.66;5079006;28;20031;-68
2022/11/28 06:47:59;;;;;;;7.75;5.40;;;;;;;2.21;77.20;95326.75;5096417;28;20039;-70
2022/11/28 06:50:25;;;;;;;7.53;5.65;;;;;;;2.22;77.15;95325.03;5070556;28;20040;-69
2022/11/28 06:52:50;;;;;;;7.93;5.50;;;;;;;2.20;77.26;95311.44;5074981;28;20027;-70
2022/11/28 06:55:16;;;;;;;6.82;5.00;;;;;;;2.28;77.10;95326.50;5098118;28;20032;-71
2022/11/28 06:57:42;;;;;;;7.15;5.18;;;;;;;2.20;76.84;95314.84;5094646;28;20417;-70
2022/11/28 07:00:08;;;;;;;9.30;6.15;;;;;;;2.23;76.92;95319.00;5060710;28;20028;-69
2022/11/28 07:02:33;;;;;;;9.57;6.38;;;;;;;2.23;76.33;95324.97;5079922;28;20051;-70
2022/11/28 07:04:59;;;;;;;8.93;5.85;;;;;;;2.24;76.38;95320.66;5094646;28;20027;-70
2022/11/28 07:07:24;;;;;;;8.50;5.95;;;;;;;2.30;76.83;95328.09;5091335;28;20498;-71
2022/11/28 07:09:50;;;;;;;7.45;5.28;;;;;;;2.43;77.04;95334.38;5087784;28;20490;-70
2022/11/28 07:12:16;;;;;;;9.80;6.28;;;;;;;2.39;77.07;95319.19;5092627;27;20494;-71
2022/11/28 07:14:41;;;;;;;8.38;5.78;;;;;;;2.41;77.49;95322.50;5098511;27;20099;-70
2022/11/28 07:17:07;;;;;;;8.77;6.00;;;;;;;2.30;77.75;95325.53;5108788;28;20034;-70
2022/11/28 07:19:33;;;;;;;7.10;4.93;;;;;;;2.29;77.58;95323.06;5108654;28;20077;-71
2022/11/28 07:21:58;;;;;;;6.93;4.70;;;;;;;2.24;77.17;95316.38;5091948;28;20093;-70
2022/11/28 07:24:24;;;;;;;6.82;4.40;;;;;;;2.25;77.01;95322.31;5094106;28;20409;-71
2022/11/28 07:26:49;;;;;;;8.77;5.85;;;;;;;2.26;76.47;95323.16;5112404;28;20043;-71
2022/11/28 07:29:15;;;;;;;10.77;6.80;;;;;;;2.18;76.43;95306.38;5112358;28;20053;-71
2022/11/28 07:31:41;;;;;;;10.05;5.70;;;;;;;2.22;76.16;95328.41;5111628;28;20103;-71
2022/11/28 07:34:07;;;;;;;8.30;5.63;;;;;;;2.09;75.93;95322.16;5110912;28;20059;-71
2022/11/28 07:36:33;;;;;;;9.88;6.32;;;;;;;2.19;75.72;95318.28;5111011;28;20055;-71
2022/11/28 07:38:59;;;;;;;7.70;4.90;;;;;;;2.03;75.81;95316.44;5112037;28;20085;-71
2022/11/28 07:41:25;;;;;;;7.72;4.50;;;;;;;2.03;76.06;95330.06;5093941;28;20031;-71
2022/11/28 07:43:53;;;;;;;8.15;5.10;;;;;;;2.20;76.07;95330.22;5094020;28;20031;-70
2022/11/28 07:46:18;;;;;;;10.07;6.05;;;;;;;2.36;76.20;95325.25;5093948;28;20042;-71
2022/11/28 07:48:44;;;;;;;10.23;6.55;;;;;;;2.49;74.96;95315.31;5111095;28;20031;-70
2022/11/28 07:51:12;;;;;;;9.45;6.30;;;;;;;2.40;74.44;95313.16;5094587;28;20558;-70
2022/11/28 07:53:38;;;;;;;9.40;6.40;;;;;;;2.21;75.46;95325.94;5112836;28;20046;-71
2022/11/28 07:56:04;;;;;;;8.30;5.15;;;;;;;2.15;76.21;95321.06;5112948;28;20520;-70
2022/11/28 07:58:29;;;;;;;6.18;4.18;;;;;;;2.07;75.88;95323.94;5078964;28;20055;-70
2022/11/28 08:00:55;;;;;;;5.90;3.70;;;;;;;1.91;76.12;95321.16;5113836;28;20036;-70
2022/11/28 08:03:20;;;;;;;6.00;3.58;;;;;;;1.93;76.12;95318.56;5113884;28;20081;-71
2022/11/28 08:05:48;;;;;;;5.32;3.42;;;;;;;1.96;75.65;95319.25;5114117;28;20027;-70
2022/11/28 08:08:17;;;;;;;5.63;3.05;;;;;;;1.94;76.02;95321.03;5095748;28;20504;-71
2022/11/28 08:10:43;;;;;;;5.38;3.28;;;;;;;1.79;76.73;95314.81;5112670;28;20023;-70
2022/11/28 08:13:09;;;;;;;5.05;3.13;;;;;;;1.69;76.91;95307.56;5095728;28;20636;-71
2022/11/28 08:15:38;;;;;;;5.28;2.95;;;;;;;1.85;76.44;95320.59;5095385;28;20024;-70
2022/11/28 08:18:04;;;;;;;4.30;2.80;;;;;;;1.77;77.18;95326.00;5112377;28;20103;-70
2022/11/28 08:20:30;;;;;;;5.00;3.00;;;;;;;1.91;77.29;95317.78;5094677;28;20032;-70
2022/11/28 08:22:55;;;;;;;4.15;2.88;;;;;;;1.99;76.93;95318.28;5113548;28;20043;-70
2022/11/28 08:25:21;;;;;;;4.00;2.97;;;;;;;1.90;77.26;95316.94;5112254;28;20039;-71
2022/11/28 08:27:46;;;;;;;4.35;2.92;;;;;;;1.98;77.18;95308.94;5112263;28;20117;-71
2022/11/28 08:30:12;;;;;;;4.40;3.10;;;;;;;2.03;76.88;95308.75;5112058;28;20023;-71
2022/11/28 08:32:37;;;;;;;4.50;2.97;;;;;;;2.10;76.52;95313.56;5113380;28;20028;-72
2022/11/28 08:35:03;;;;;;;3.67;2.60;;;;;;;2.18;76.87;95303.81;5112018;28;20024;-70
2022/11/28 08:37:28;;;;;;;3.92;2.55;;;;;;;2.07;77.29;95287.22;5112075;28;20036;-70
2022/11/28 08:39:54;;;;;;;4.43;3.08;;;;;;;2.19;76.99;95295.22;5111977;28;20024;-70
2022/11/28 08:42:20;;;;;;;4.55;3.15;;;;;;;2.34;76.95;95305.72;5111963;28;20032;-70
2022/11/28 08:44:45;;;;;;;6.18;4.20;;;;;;;2.11;77.27;95253.69;5094831;28;20028;-70
2022/11/28 08:47:11;;;;;;;6.75;4.28;;;;;;;2.42;76.68;95304.50;5112943;28;20039;-70
2022/11/28 08:49:36;;;;;;;9.60;7.90;;;;;;;2.59;76.62;95306.34;5113206;27;20035;-70
2022/11/28 08:52:03;;;;;;;7.15;4.35;;;;;;;2.68;75.99;95303.38;5111739;28;20032;-70
2022/11/28 08:54:29;;;;;;;5.88;4.18;;;;;;;2.86;76.31;95299.13;5111865;28;20099;-70
2022/11/28 08:56:54;;;;;;;10.80;8.20;;;;;;;2.88;75.48;95304.22;5111632;28;20027;-70
2022/11/28 08:59:20;;;;;;;8.73;6.28;;;;;;;2.76;74.75;95297.03;5111483;28;20080;-70
2022/11/28 09:01:45;;;;;;;8.23;6.25;;;;;;;2.66;75.09;95286.38;5112806;28;20031;-70
2022/11/28 09:04:11;;;;;;;6.80;4.68;;;;;;;2.76;75.79;95291.91;5111311;28;20027;-70
2022/11/28 09:06:39;;;;;;;6.07;3.80;;;;;;;2.47;74.53;95281.22;5113136;28;20027;-70
2022/11/28 09:09:05;;;;;;;6.60;4.78;;;;;;;2.51;75.78;95287.88;5094391;28;20031;-70
2022/11/28 09:11:30;;;;;;;5.68;4.18;;;;;;;2.71;75.98;95275.91;5112772;28;20108;-70
2022/11/28 09:13:56;;;;;;;10.38;6.30;;;;;;;2.84;76.03;95266.75;5112769;28;20481;-70
2022/11/28 09:16:21;;;;;;;12.88;9.23;;;;;;;3.03;75.60;95267.56;5112361;28;20497;-70
2022/11/28 09:18:47;;;;;;;6.05;3.83;;;;;;;3.12;73.63;95274.00;5112457;28;20023;-70
2022/11/28 09:21:13;;;;;;;6.80;5.43;;;;;;;3.08;73.88;95257.94;5111205;28;20026;-70
2022/11/28 09:23:39;;;;;;;5.15;3.65;;;;;;;3.09;73.04;95258.75;5094551;28;20032;-70
2022/11/28 09:26:08;;;;;;;28.95;21.92;;;;;;;3.14;73.86;95257.63;5094393;28;20491;-70
2022/11/28 09:28:34;;;;;;;9.43;6.82;;;;;;;3.06;75.04;95249.44;5110893;28;20104;-70
2022/11/28 09:31:00;;;;;;;30.38;20.33;;;;;;;3.19;74.59;95251.47;5112599;28;20477;-70
2022/11/28 09:33:25;;;;;;;22.88;12.60;;;;;;;3.28;73.75;95240.75;5111094;28;20481;-70
2022/11/28 09:35:51;;;;;;;11.45;6.95;;;;;;;3.27;73.61;95241.66;5094097;28;20042;-70
2022/11/28 09:38:16;;;;;;;8.13;4.97;;;;;;;3.54;71.84;95242.09;5110821;28;20023;-70
2022/11/28 09:40:42;;;;;;;11.02;6.55;;;;;;;3.42;72.18;95217.81;5110848;28;20031;-70
2022/11/28 09:43:36;;;;;;;20.95;13.48;;;;;;;3.47;72.10;95231.25;5094087;28;20031;-71
2022/11/28 09:46:04;;;;;;;9.20;5.43;;;;;;;3.54;72.24;95235.22;5106290;28;20126;-70
2022/11/28 09:48:35;;;;;;;8.23;4.20;;;;;;;3.52;72.47;95229.31;5110570;28;20030;-70
2022/11/28 09:51:16;;;;;;;5.85;3.53;;;;;;;3.43;72.49;95226.38;5094112;28;20118;-70
2022/11/28 09:53:46;;;;;;;5.57;4.03;;;;;;;3.43;71.83;95216.91;5094679;28;20420;-70
2022/11/28 09:56:14;;;;;;;4.13;2.73;;;;;;;3.26;70.43;95215.16;5094058;28;20036;-70
2022/11/28 09:58:57;;;;;;;5.05;2.92;;;;;;;3.18;70.98;95206.16;5110498;28;20032;-70
2022/11/28 10:01:32;;;;;;;4.63;3.00;;;;;;;3.21;71.33;95206.03;5094854;28;20099;-70
2022/11/28 10:04:03;;;;;;;4.22;3.03;;;;;;;3.12;71.42;95202.97;5111504;28;20118;-70
2022/11/28 10:06:57;;;;;;;4.70;2.97;;;;;;;3.18;71.63;95201.84;5093889;28;20242;-70
2022/11/28 10:09:52;;;;;;;6.00;3.70;;;;;;;3.16;72.54;95202.84;5102366;28;20089;-70
2022/11/28 10:12:44;;;;;;;4.95;3.20;;;;;;;3.19;72.05;95208.66;5110979;28;20047;-70
2022/11/28 10:15:18;;;;;;;4.57;2.70;;;;;;;3.07;71.21;95202.38;5110223;28;20036;-70
2022/11/28 10:17:49;;;;;;;3.33;2.10;;;;;;;3.19;70.52;95203.50;5110261;28;20112;-70
2022/11/28 10:20:20;;;;;;;2.85;2.10;;;;;;;3.26;69.88;95192.06;5110350;28;20035;-70
2022/11/28 10:22:49;;;;;;;3.13;1.75;;;;;;;3.49;70.15;95198.63;5110218;28;20115;-71
2022/11/28 10:25:21;;;;;;;2.83;1.85;;;;;;;3.49;68.66;95211.47;5093514;28;20035;-70
2022/11/28 10:27:47;;;;;;;2.85;1.83;;;;;;;3.21;68.58;95200.88;5109988;28;20040;-70
2022/11/28 10:30:21;;;;;;;2.63;1.60;;;;;;;3.04;68.82;95199.94;5093146;28;20036;-70
2022/11/28 10:33:09;;;;;;;2.72;1.50;;;;;;;3.05;69.80;95187.94;5093677;28;20466;-70
2022/11/28 10:35:42;;;;;;;2.63;1.90;;;;;;;2.97;70.46;95188.28;5109955;28;20040;-70
2022/11/28 10:38:12;;;;;;;2.30;1.60;;;;;;;2.94;70.83;95177.34;5111489;28;20027;-70
2022/11/28 10:41:05;;;;;;;2.70;1.73;;;;;;;2.91;70.09;95179.16;5093079;28;20409;-70
2022/11/28 10:43:40;;;;;;;3.70;2.13;;;;;;;2.91;70.59;95181.72;5110327;28;20027;-70
2022/11/28 10:46:15;;;;;;;4.93;2.70;;;;;;;3.03;71.15;95177.72;5114176;28;20039;-70
2022/11/28 10:49:15;;;;;;;5.15;3.15;;;;;;;3.13;70.14;95171.25;5115334;28;20027;-70
2022/11/28 10:51:50;;;;;;;4.90;3.00;;;;;;;3.32;70.45;95167.81;5089714;28;20493;-70
2022/11/28 10:54:27;;;;;;;4.55;3.22;;;;;;;3.46;70.87;95167.16;5115158;28;20447;-71
2022/11/28 10:56:59;;;;;;;4.80;2.50;;;;;;;3.52;69.16;95169.41;5115188;28;20051;-70
2022/11/28 10:59:46;;;;;;;3.50;2.75;;;;;;;3.43;68.48;95162.97;5113938;28;20090;-70
2022/11/28 11:02:33;;;;;;;3.65;2.70;;;;;;;3.46;68.74;95159.44;5115072;28;20015;-70
2022/11/28 11:04:59;;;;;;;3.15;2.15;;;;;;;3.49;68.60;95159.28;5113919;28;20035;-70
2022/11/28 11:07:29;;;;;;;3.90;2.72;;;;;;;3.47;69.62;95159.34;5113749;28;20470;-70
2022/11/28 11:09:57;;;;;;;4.05;2.67;;;;;;;3.49;69.48;95149.84;5113708;28;20070;-70
2022/11/28 11:12:25;;;;;;;6.50;3.08;;;;;;;3.55;68.96;95153.84;5096803;28;20078;-70
2022/11/28 11:14:50;;;;;;;5.80;3.30;;;;;;;3.75;69.31;95160.53;5096663;28;20043;-70
2022/11/28 11:17:32;;;;;;;6.30;3.30;;;;;;;3.75;68.86;95145.13;5114851;28;20031;-70
2022/11/28 11:19:58;;;;;;;4.05;2.60;;;;;;;3.97;67.70;95145.69;5114805;28;20028;-70
2022/11/28 11:22:30;;;;;;;7.55;6.15;;;;;;;4.16;67.43;95147.31;5096542;28;20485;-70
2022/11/28 11:25:14;;;;;;;5.38;3.70;;;;;;;4.16;66.64;95137.03;5081021;28;20042;-71
2022/11/28 11:27:48;;;;;;;6.53;3.95;;;;;;;3.95;65.67;95136.38;5114560;28;20108;-70
2022/11/28 11:30:22;;;;;;;6.28;3.83;;;;;;;3.91;65.82;95129.75;5096527;28;20051;-70
2022/11/28 11:32:47;;;;;;;5.38;3.42;;;;;;;3.98;66.06;95136.22;5080130;28;20454;-70
2022/11/28 11:35:21;;;;;;;4.60;3.03;;;;;;;3.89;65.17;95118.72;5113132;28;20028;-70
2022/11/28 11:37:46;;;;;;;5.00;3.60;;;;;;;3.96;66.04;95132.91;5079883;28;20035;-70
2022/11/28 11:40:27;;;;;;;4.15;2.75;;;;;;;3.84;65.68;95128.41;5114479;28;20478;-70
2022/11/28 11:42:55;;;;;;;3.95;2.78;;;;;;;3.90;66.04;95128.06;5096761;28;20081;-71
2022/11/28 11:45:28;;;;;;;4.35;2.95;;;;;;;4.02;66.52;95123.13;5113135;28;20408;-71
2022/11/28 11:47:53;;;;;;;7.18;4.20;;;;;;;4.06;66.97;95117.84;5114226;28;20042;-70
2022/11/28 11:50:21;;;;;;;5.38;4.15;;;;;;;4.10;67.51;95117.59;5114479;28;20110;-71